aviador You're here:

OISY Decoded Metar

in _UNIDENTIFIED
Report Time2018-07-22 16:00:00
UTC Time2018-07-22 16:36:59
Flight Rules vfr VFR
Wind120° at 08 kt
W.Decomp.*RWY 13: 7.8 kt HW 1.7 kt LCW
W.Rank120° ranks 6
Current wind is above 120° avg. (5.3)
Visibility8000 m
Phenomena:N/A
Clouds:Few 040 Hf
Scattered 080 Hf
Expected CloudBase > 13,200 ft AGL from Temp-Dew spread
CeilingNone
Temp29°C
Dew Point-4°C (11% RH)
Heat Index27.4°C
AAT23.6°C
QNH1012 hPa
Raw Report
METAR OISY 221600Z 12008KT 8000 FEW040 SCT080 29/M04 Q1012=

Extra information for OISY:More info

Metar Taf Metar & Taf Last 4 Metars F.Rules Stats Wind Profile Meteogram Temp Stats Metar ALERT Operation Metar Decoded Social comments